Time;durP1;ratioP1;P1;durP2;ratioP2;P2;SDS_P1;SDS_P2;PMS_P1;PMS_P2;Temp;Humidity;BMP_temperature;BMP_pressure;BME280_temperature;BME280_humidity;BME280_pressure;Samples;Min_cycle;Max_cycle;Signal;HPM_P1;HPM_P2
2021/12/20 00:02:21;;;;;;;4.78;3.95;;;6.50;99.90;;;;;;5062049;28;20198;-66
2021/12/20 00:04:51;;;;;;;3.80;3.03;;;6.50;99.90;;;;;;5057267;28;20264;-66
2021/12/20 00:07:18;;;;;;;3.78;3.47;;;6.50;99.90;;;;;;5065688;28;20228;-66
2021/12/20 00:09:45;;;;;;;3.50;2.85;;;6.50;99.90;;;;;;5069106;28;20290;-66
2021/12/20 00:12:13;;;;;;;4.03;3.00;;;6.50;99.90;;;;;;5068382;28;20210;-68
2021/12/20 00:14:39;;;;;;;5.53;4.57;;;6.60;99.90;;;;;;5068448;28;20218;-67
2021/12/20 00:17:06;;;;;;;7.00;4.35;;;6.60;99.90;;;;;;5067863;28;20230;-67
2021/12/20 00:19:33;;;;;;;4.65;3.85;;;6.60;99.90;;;;;;5067105;28;20227;-67
2021/12/20 00:21:59;;;;;;;4.22;2.65;;;6.60;99.90;;;;;;5069397;28;20203;-67
2021/12/20 00:24:26;;;;;;;5.18;3.15;;;6.60;99.90;;;;;;5066995;28;20201;-68
2021/12/20 00:26:53;;;;;;;4.57;3.45;;;6.60;99.90;;;;;;5065765;28;21117;-66
2021/12/20 00:29:21;;;;;;;3.88;3.58;;;6.60;99.90;;;;;;5065287;28;20735;-66
2021/12/20 00:31:47;;;;;;;4.13;3.83;;;6.60;99.90;;;;;;5103053;22;20388;-66
2021/12/20 00:34:14;;;;;;;5.03;3.63;;;6.60;99.90;;;;;;5099937;28;20227;-66
2021/12/20 00:36:40;;;;;;;5.18;4.68;;;6.60;99.90;;;;;;5092766;28;20210;-66
2021/12/20 00:41:51;;;;;;;3.25;3.05;;;6.70;99.90;;;;;;5074846;28;20229;-66
2021/12/20 00:44:18;;;;;;;3.88;3.08;;;6.60;99.90;;;;;;5079113;28;20270;-66
2021/12/20 00:46:46;;;;;;;6.32;4.00;;;6.60;99.90;;;;;;5068680;28;20201;-68
2021/12/20 00:49:12;;;;;;;4.75;2.70;;;6.70;99.90;;;;;;5066231;28;20259;-67
2021/12/20 00:51:39;;;;;;;5.75;3.00;;;6.70;99.90;;;;;;5065996;28;20218;-65
2021/12/20 00:54:06;;;;;;;4.82;3.70;;;6.70;99.90;;;;;;5067062;28;20588;-68
2021/12/20 00:56:32;;;;;;;5.05;3.20;;;6.60;99.90;;;;;;5069789;28;20193;-66
2021/12/20 00:58:59;;;;;;;4.25;3.85;;;6.70;99.90;;;;;;5062279;28;20279;-66
2021/12/20 01:01:26;;;;;;;4.28;3.50;;;6.60;99.90;;;;;;5066188;28;20370;-66
2021/12/20 01:03:54;;;;;;;5.15;3.70;;;6.60;99.90;;;;;;5066142;28;20265;-66
2021/12/20 01:06:20;;;;;;;7.80;3.55;;;6.60;99.90;;;;;;5067472;28;20264;-68
2021/12/20 01:08:49;;;;;;;3.72;3.10;;;6.60;99.90;;;;;;5068286;28;20275;-68
2021/12/20 01:11:21;;;;;;;4.90;2.88;;;6.60;99.90;;;;;;5055391;28;20621;-67
2021/12/20 01:13:48;;;;;;;3.47;3.20;;;6.60;99.90;;;;;;5066203;28;20194;-66
2021/12/20 01:16:15;;;;;;;2.45;2.22;;;6.70;99.90;;;;;;5066080;28;20223;-68
2021/12/20 01:18:42;;;;;;;4.28;2.17;;;6.60;99.90;;;;;;5065629;28;20285;-68
2021/12/20 01:21:10;;;;;;;3.58;2.75;;;6.60;99.90;;;;;;5079447;28;20224;-67
2021/12/20 01:23:38;;;;;;;2.45;2.25;;;6.60;99.90;;;;;;5067105;28;20209;-67
2021/12/20 01:26:05;;;;;;;5.22;2.88;;;6.60;99.90;;;;;;5065927;28;20233;-67
2021/12/20 01:28:32;;;;;;;2.70;2.40;;;6.60;99.90;;;;;;5065141;28;20194;-67
2021/12/20 01:30:58;;;;;;;2.90;2.30;;;6.60;99.90;;;;;;5075324;28;20309;-66
2021/12/20 01:33:25;;;;;;;8.75;2.53;;;6.60;99.90;;;;;;5078382;28;20209;-66
2021/12/20 01:35:52;;;;;;;3.17;2.85;;;6.60;99.90;;;;;;5065263;28;20323;-66
2021/12/20 01:38:20;;;;;;;3.97;3.15;;;6.60;99.90;;;;;;5072127;28;20201;-66
2021/12/20 01:40:47;;;;;;;2.17;1.98;;;6.60;99.90;;;;;;5074881;28;20222;-66
2021/12/20 01:43:16;;;;;;;2.90;2.60;;;6.60;99.90;;;;;;5072559;28;20210;-65
2021/12/20 01:45:43;;;;;;;3.63;3.25;;;6.50;99.90;;;;;;5069980;28;20591;-66
2021/12/20 01:48:13;;;;;;;3.25;3.00;;;6.50;99.90;;;;;;5074332;28;20236;-66
2021/12/20 01:50:49;;;;;;;2.97;1.92;;;6.50;99.90;;;;;;5067830;28;20217;-66
2021/12/20 01:53:20;;;;;;;3.58;3.28;;;6.50;99.90;;;;;;5061020;28;20207;-65
2021/12/20 01:55:48;;;;;;;2.78;2.50;;;6.50;99.90;;;;;;5060663;28;20249;-65
2021/12/20 01:58:15;;;;;;;5.75;2.53;;;6.50;99.90;;;;;;5069869;28;20208;-65
2021/12/20 02:01:03;;;;;;;4.78;2.58;;;6.50;99.90;;;;;;5065415;28;20236;-68
2021/12/20 02:03:30;;;;;;;3.88;2.75;;;6.50;99.90;;;;;;5074100;28;20216;-67
2021/12/20 02:05:59;;;;;;;2.53;2.10;;;6.50;99.90;;;;;;5068287;28;20208;-68
2021/12/20 02:08:29;;;;;;;3.03;2.55;;;6.50;99.90;;;;;;5067429;28;20302;-68
2021/12/20 02:10:57;;;;;;;5.57;3.65;;;6.50;99.90;;;;;;5064932;28;20217;-67
2021/12/20 02:13:28;;;;;;;2.75;2.55;;;6.50;99.90;;;;;;5066927;28;20578;-67
2021/12/20 02:15:55;;;;;;;1.67;1.58;;;6.50;99.90;;;;;;5065493;28;20217;-67
2021/12/20 02:18:22;;;;;;;3.47;2.60;;;6.60;99.90;;;;;;5062662;28;20208;-68
2021/12/20 02:20:50;;;;;;;3.92;2.65;;;6.60;99.90;;;;;;5073563;28;20855;-67
2021/12/20 02:23:16;;;;;;;2.88;1.65;;;6.60;99.90;;;;;;5060423;28;20193;-67
2021/12/20 02:25:43;;;;;;;4.13;2.13;;;6.60;99.90;;;;;;5057486;28;20280;-68
2021/12/20 02:28:12;;;;;;;4.47;3.13;;;6.50;99.90;;;;;;5065497;28;20206;-67
2021/12/20 02:30:49;;;;;;;3.75;2.10;;;6.50;99.90;;;;;;5067932;28;20228;-68
2021/12/20 02:38:47;;;;;;;3.42;2.03;;;6.50;99.90;;;;;;5072971;28;20875;-67
2021/12/20 02:41:20;;;;;;;3.08;1.85;;;6.50;99.90;;;;;;5077006;28;20297;-67
2021/12/20 02:43:53;;;;;;;4.93;1.90;;;6.50;99.90;;;;;;5069614;28;20201;-67
2021/12/20 02:46:32;;;;;;;4.50;2.58;;;6.50;99.90;;;;;;5068213;28;20223;-68
2021/12/20 02:48:58;;;;;;;3.95;2.35;;;6.50;99.90;;;;;;5061832;28;20213;-67
2021/12/20 02:51:27;;;;;;;6.40;2.75;;;6.50;99.90;;;;;;5065061;28;20221;-68
2021/12/20 02:53:55;;;;;;;4.13;2.25;;;6.50;99.90;;;;;;5065855;28;20281;-67
2021/12/20 02:56:22;;;;;;;1.50;1.30;;;6.50;99.90;;;;;;5068104;28;20225;-67
2021/12/20 02:58:49;;;;;;;3.83;3.47;;;6.50;99.90;;;;;;5068215;28;20204;-67
2021/12/20 03:01:16;;;;;;;6.05;2.60;;;6.50;99.90;;;;;;5074178;28;20272;-67
2021/12/20 03:03:43;;;;;;;3.30;2.55;;;6.50;99.90;;;;;;5077535;28;20260;-68
2021/12/20 03:06:13;;;;;;;2.35;2.17;;;6.50;99.90;;;;;;5075664;28;20263;-68
2021/12/20 03:08:45;;;;;;;9.35;3.53;;;6.50;99.90;;;;;;5063154;28;20831;-68
2021/12/20 03:11:12;;;;;;;4.75;2.25;;;6.50;99.90;;;;;;5070449;28;20308;-67
2021/12/20 03:13:39;;;;;;;3.15;2.00;;;6.50;99.90;;;;;;5064400;28;20292;-67
2021/12/20 03:16:06;;;;;;;3.88;3.13;;;6.50;99.90;;;;;;5064024;28;20347;-68
2021/12/20 03:18:33;;;;;;;2.25;1.38;;;6.50;99.90;;;;;;5064142;28;20209;-68
2021/12/20 03:20:59;;;;;;;2.15;1.73;;;6.50;99.90;;;;;;5065029;28;20248;-68
2021/12/20 03:23:26;;;;;;;5.10;3.28;;;6.50;99.90;;;;;;5063876;28;20308;-67
2021/12/20 03:25:54;;;;;;;7.20;2.17;;;6.60;99.90;;;;;;5066005;28;20392;-67
2021/12/20 03:28:21;;;;;;;2.85;1.80;;;6.50;99.90;;;;;;5071004;28;20681;-68
2021/12/20 03:30:47;;;;;;;2.55;1.45;;;6.50;99.90;;;;;;5071325;28;20274;-68
2021/12/20 03:33:14;;;;;;;3.17;1.40;;;6.50;99.90;;;;;;5076554;28;20268;-68
2021/12/20 03:35:41;;;;;;;1.65;1.55;;;6.50;99.90;;;;;;5073386;28;20270;-67
2021/12/20 03:38:09;;;;;;;2.97;2.78;;;6.50;99.90;;;;;;5069588;28;20271;-67
2021/12/20 03:40:36;;;;;;;5.40;2.72;;;6.50;99.90;;;;;;5065617;28;20262;-68
2021/12/20 03:43:06;;;;;;;2.15;1.95;;;6.50;99.90;;;;;;5063815;28;20214;-67
2021/12/20 03:45:33;;;;;;;7.03;2.70;;;6.50;99.90;;;;;;5070269;28;20248;-68
2021/12/20 03:48:00;;;;;;;2.78;1.80;;;6.50;99.90;;;;;;5065208;28;20594;-68
2021/12/20 03:50:27;;;;;;;3.95;2.47;;;6.40;99.90;;;;;;5070619;28;20563;-67
2021/12/20 03:52:54;;;;;;;5.90;2.40;;;6.40;99.90;;;;;;5063392;28;20237;-67
2021/12/20 03:55:20;;;;;;;2.60;2.15;;;6.40;99.90;;;;;;5065806;28;20230;-67
2021/12/20 03:57:47;;;;;;;4.45;2.33;;;6.50;99.90;;;;;;5070910;28;20193;-67
2021/12/20 04:00:16;;;;;;;3.45;3.15;;;6.50;99.90;;;;;;5077353;28;20258;-68
2021/12/20 04:02:45;;;;;;;11.35;4.13;;;6.50;99.90;;;;;;5075361;28;20250;-67
2021/12/20 04:05:13;;;;;;;2.83;2.30;;;6.50;99.90;;;;;;5074697;28;20202;-68
2021/12/20 04:07:40;;;;;;;3.83;1.73;;;6.50;99.90;;;;;;5067194;28;20213;-67
2021/12/20 04:10:09;;;;;;;4.43;2.20;;;6.50;99.90;;;;;;5066864;28;20229;-67
2021/12/20 04:12:35;;;;;;;4.53;2.03;;;6.50;99.90;;;;;;5070143;28;20241;-66
2021/12/20 04:15:02;;;;;;;2.25;1.52;;;6.50;99.90;;;;;;5074104;28;20342;-68
2021/12/20 04:17:30;;;;;;;7.07;2.45;;;6.50;99.90;;;;;;5077541;28;20612;-66
2021/12/20 04:19:58;;;;;;;2.35;1.17;;;6.50;99.90;;;;;;5067828;28;20328;-66
2021/12/20 04:22:24;;;;;;;5.70;2.75;;;6.50;99.90;;;;;;5072004;28;20230;-66
2021/12/20 04:24:51;;;;;;;3.03;1.40;;;6.40;99.90;;;;;;5074914;28;20787;-67
2021/12/20 04:27:18;;;;;;;4.63;2.25;;;6.50;99.90;;;;;;5079963;28;20327;-68
2021/12/20 04:29:44;;;;;;;7.93;3.08;;;6.50;99.90;;;;;;5066244;28;20205;-67
2021/12/20 04:32:11;;;;;;;1.05;0.95;;;6.50;99.90;;;;;;5067605;28;20230;-68
2021/12/20 04:34:39;;;;;;;2.95;1.98;;;6.50;99.90;;;;;;5068759;28;20272;-67
2021/12/20 04:37:07;;;;;;;3.83;2.00;;;6.50;99.90;;;;;;5074753;28;20306;-67
2021/12/20 04:39:34;;;;;;;1.58;1.48;;;6.50;99.90;;;;;;5067213;28;20202;-67
2021/12/20 04:42:01;;;;;;;1.23;0.98;;;6.50;99.90;;;;;;5080513;28;20585;-68
2021/12/20 04:44:28;;;;;;;1.45;1.35;;;6.50;99.90;;;;;;5068053;28;20205;-67
2021/12/20 04:46:54;;;;;;;2.58;1.85;;;6.50;99.90;;;;;;5072322;28;20617;-68
2021/12/20 04:49:24;;;;;;;1.60;1.50;;;6.50;99.90;;;;;;5077229;28;20526;-68
2021/12/20 04:51:52;;;;;;;1.58;1.45;;;6.50;99.90;;;;;;5071392;28;20226;-67
2021/12/20 04:54:19;;;;;;;5.13;1.80;;;6.50;99.90;;;;;;5064505;28;20215;-67
2021/12/20 04:56:46;;;;;;;3.92;1.98;;;6.50;99.90;;;;;;5070121;28;20214;-68
2021/12/20 04:59:13;;;;;;;3.78;1.90;;;6.50;99.90;;;;;;5073268;28;20201;-68
2021/12/20 05:01:40;;;;;;;2.85;1.88;;;6.50;99.90;;;;;;5069471;28;20233;-68
2021/12/20 05:04:06;;;;;;;7.47;1.90;;;6.50;99.90;;;;;;5070284;28;20252;-67
2021/12/20 05:06:33;;;;;;;3.95;2.08;;;6.50;99.90;;;;;;5070625;28;20505;-68
2021/12/20 05:09:03;;;;;;;11.07;3.22;;;6.50;99.90;;;;;;5067932;28;20288;-67
2021/12/20 05:11:33;;;;;;;2.28;1.75;;;6.50;99.90;;;;;;5070265;28;20230;-67
2021/12/20 05:13:59;;;;;;;8.32;2.90;;;6.50;99.90;;;;;;5058931;28;20658;-67
2021/12/20 05:16:26;;;;;;;3.00;2.50;;;6.50;99.90;;;;;;5078490;28;20226;-67
2021/12/20 05:18:53;;;;;;;4.82;2.00;;;6.50;99.90;;;;;;5066222;28;20206;-67
2021/12/20 05:21:19;;;;;;;4.20;2.30;;;6.50;99.90;;;;;;5066567;28;20217;-67
2021/12/20 05:23:46;;;;;;;6.43;2.30;;;6.50;99.90;;;;;;5067085;28;20640;-67
2021/12/20 05:26:14;;;;;;;3.20;2.60;;;6.50;99.90;;;;;;5064468;28;20194;-67
2021/12/20 05:28:41;;;;;;;3.40;2.28;;;6.50;99.90;;;;;;5061024;28;20263;-67
2021/12/20 05:31:07;;;;;;;4.05;3.08;;;6.50;99.90;;;;;;5061130;28;20749;-67
2021/12/20 05:33:34;;;;;;;8.18;2.58;;;6.50;99.90;;;;;;5063501;28;20237;-68
2021/12/20 05:36:01;;;;;;;4.88;1.70;;;6.50;99.90;;;;;;5062621;28;20758;-67
2021/12/20 05:38:27;;;;;;;3.10;1.90;;;6.50;99.90;;;;;;5064675;28;20279;-67
2021/12/20 05:40:54;;;;;;;7.53;1.70;;;6.50;99.90;;;;;;5064045;28;20294;-67
2021/12/20 05:43:22;;;;;;;4.10;1.77;;;6.50;99.90;;;;;;5064920;28;20210;-67
2021/12/20 05:45:50;;;;;;;2.35;1.30;;;6.50;99.90;;;;;;5065012;28;20198;-67
2021/12/20 05:48:16;;;;;;;1.17;1.08;;;6.50;99.90;;;;;;5065258;28;20219;-67
2021/12/20 05:50:43;;;;;;;4.00;2.38;;;6.40;99.90;;;;;;5064004;28;20724;-67
2021/12/20 05:53:10;;;;;;;3.72;2.30;;;6.40;99.90;;;;;;5067374;28;20391;-67
2021/12/20 05:55:36;;;;;;;1.20;1.02;;;6.40;99.90;;;;;;5067156;28;20252;-68
2021/12/20 05:58:03;;;;;;;2.65;1.40;;;6.40;99.90;;;;;;5065185;28;20223;-67
2021/12/20 06:00:31;;;;;;;4.93;1.30;;;6.40;99.90;;;;;;5065315;28;20213;-67
2021/12/20 06:02:58;;;;;;;4.05;1.20;;;6.40;99.90;;;;;;5067694;28;20198;-68
2021/12/20 06:05:25;;;;;;;6.63;2.00;;;6.40;99.90;;;;;;5068437;28;20217;-67
2021/12/20 06:07:51;;;;;;;6.32;2.35;;;6.30;99.90;;;;;;5060862;28;20259;-67
2021/12/20 06:10:19;;;;;;;2.47;2.20;;;6.30;99.90;;;;;;5060227;28;20202;-67
2021/12/20 06:12:46;;;;;;;2.80;2.20;;;6.30;99.90;;;;;;5064725;28;20665;-68
2021/12/20 06:15:13;;;;;;;2.38;1.33;;;6.30;99.90;;;;;;5065974;28;22230;-68
2021/12/20 06:17:42;;;;;;;9.00;1.88;;;6.30;99.90;;;;;;5066847;28;20225;-68
2021/12/20 06:20:12;;;;;;;6.45;2.15;;;6.30;99.90;;;;;;5066275;28;20247;-68
2021/12/20 06:22:38;;;;;;;1.17;0.60;;;6.30;99.90;;;;;;5063558;28;20229;-67
2021/12/20 06:25:06;;;;;;;5.03;1.38;;;6.30;99.90;;;;;;5064477;28;20686;-67
2021/12/20 06:27:33;;;;;;;2.45;2.03;;;6.30;99.90;;;;;;5066244;28;20214;-67
2021/12/20 06:30:00;;;;;;;9.68;2.08;;;6.30;99.90;;;;;;5064387;28;20205;-67
2021/12/20 06:32:26;;;;;;;1.60;1.15;;;6.30;99.90;;;;;;5094327;22;20225;-66
2021/12/20 06:34:55;;;;;;;4.18;1.42;;;6.30;99.90;;;;;;5085701;28;20633;-66
2021/12/20 06:37:22;;;;;;;4.95;1.90;;;6.30;99.90;;;;;;5085805;28;20317;-66
2021/12/20 06:39:49;;;;;;;9.25;3.50;;;6.30;99.90;;;;;;5076641;28;20198;-65
2021/12/20 06:42:16;;;;;;;8.02;2.15;;;6.30;99.90;;;;;;5086469;28;20259;-67
2021/12/20 06:44:42;;;;;;;2.30;1.20;;;6.30;99.90;;;;;;5044045;28;20215;-66
2021/12/20 06:47:10;;;;;;;6.07;2.00;;;6.30;99.90;;;;;;5053505;28;20197;-66
2021/12/20 06:49:37;;;;;;;2.08;1.20;;;6.30;99.90;;;;;;5065065;28;20749;-68
2021/12/20 06:52:05;;;;;;;6.30;1.40;;;6.30;99.90;;;;;;5071543;28;20240;-66
2021/12/20 06:54:32;;;;;;;2.50;2.30;;;6.30;99.90;;;;;;5054042;28;20256;-66
2021/12/20 06:56:59;;;;;;;4.32;2.17;;;6.30;99.90;;;;;;5080567;28;20225;-67
2021/12/20 06:59:25;;;;;;;8.52;3.08;;;6.30;99.90;;;;;;5088606;28;20560;-66
2021/12/20 07:01:52;;;;;;;1.60;1.05;;;6.20;99.90;;;;;;5075409;28;20222;-67
2021/12/20 07:04:19;;;;;;;1.75;0.90;;;6.30;99.90;;;;;;5083890;28;20207;-67
2021/12/20 07:06:46;;;;;;;5.55;1.27;;;6.30;99.90;;;;;;5080549;28;20232;-68
2021/12/20 07:09:14;;;;;;;6.40;1.88;;;6.30;99.90;;;;;;5079282;28;20628;-66
2021/12/20 07:11:43;;;;;;;8.20;2.25;;;6.30;99.90;;;;;;5060066;28;20875;-68
2021/12/20 07:14:10;;;;;;;6.32;1.92;;;6.30;99.90;;;;;;5084542;28;20694;-66
2021/12/20 07:16:37;;;;;;;2.00;1.13;;;6.30;99.90;;;;;;5066643;28;20218;-66
2021/12/20 07:19:05;;;;;;;3.72;1.15;;;6.20;99.90;;;;;;5044349;28;20199;-67
2021/12/20 07:21:32;;;;;;;2.72;1.33;;;6.30;99.90;;;;;;5056230;28;20232;-66
2021/12/20 07:23:59;;;;;;;3.88;1.27;;;6.30;99.90;;;;;;5057206;28;20205;-67
2021/12/20 07:26:27;;;;;;;7.03;1.10;;;6.30;99.90;;;;;;5060197;28;20207;-66
2021/12/20 07:28:54;;;;;;;7.00;3.15;;;6.30;99.90;;;;;;5079819;28;20206;-67
2021/12/20 07:31:21;;;;;;;2.50;1.30;;;6.20;99.90;;;;;;5081584;28;20706;-67
2021/12/20 07:33:48;;;;;;;3.40;1.42;;;6.20;99.90;;;;;;5066290;28;20232;-67
2021/12/20 07:36:18;;;;;;;2.90;1.17;;;6.20;99.90;;;;;;5076884;28;20209;-67
2021/12/20 07:38:45;;;;;;;5.50;2.20;;;6.20;99.90;;;;;;5077123;28;20235;-67
2021/12/20 07:41:12;;;;;;;12.30;3.33;;;6.20;99.90;;;;;;5078165;28;20294;-68
2021/12/20 07:43:40;;;;;;;11.40;2.15;;;6.20;99.90;;;;;;5053051;28;20257;-68
2021/12/20 07:46:07;;;;;;;9.70;2.55;;;6.20;99.90;;;;;;5082438;28;20196;-66
2021/12/20 07:48:34;;;;;;;2.13;1.42;;;6.20;99.90;;;;;;5092507;28;20209;-67
2021/12/20 07:51:01;;;;;;;5.55;2.22;;;6.20;99.90;;;;;;5090632;28;20212;-68
2021/12/20 07:53:28;;;;;;;1.40;0.90;;;6.20;99.90;;;;;;5076272;28;20852;-66
2021/12/20 07:55:55;;;;;;;3.50;1.67;;;6.10;99.90;;;;;;5074673;28;20231;-67
2021/12/20 07:58:21;;;;;;;3.15;1.60;;;6.10;99.90;;;;;;5056711;28;20233;-66
2021/12/20 08:00:50;;;;;;;8.30;2.60;;;6.10;99.90;;;;;;5047678;28;20211;-67
2021/12/20 08:03:17;;;;;;;10.95;1.27;;;6.10;99.90;;;;;;5048182;28;20846;-66
2021/12/20 08:05:44;;;;;;;4.15;2.65;;;6.00;99.90;;;;;;5062253;28;20206;-67
2021/12/20 08:08:11;;;;;;;11.60;2.58;;;6.00;99.90;;;;;;5057815;28;20213;-66
2021/12/20 08:10:38;;;;;;;4.60;3.25;;;6.00;99.90;;;;;;5072544;28;20198;-68
2021/12/20 08:13:06;;;;;;;4.90;1.85;;;5.90;99.90;;;;;;5076654;28;20221;-73
2021/12/20 08:15:32;;;;;;;4.28;1.92;;;5.90;99.90;;;;;;5082791;28;20263;-69
2021/12/20 08:18:00;;;;;;;4.55;2.45;;;5.90;99.90;;;;;;5060213;28;20719;-69
2021/12/20 08:20:27;;;;;;;15.18;3.42;;;5.90;99.90;;;;;;5067787;28;20198;-66
2021/12/20 08:22:54;;;;;;;7.13;2.20;;;5.80;99.90;;;;;;5061620;28;20400;-66
2021/12/20 08:25:21;;;;;;;3.63;2.05;;;5.80;99.90;;;;;;5069675;28;20297;-66
2021/12/20 08:27:49;;;;;;;6.32;1.70;;;5.70;99.90;;;;;;5075646;28;20432;-66
2021/12/20 08:30:17;;;;;;;1.70;1.60;;;5.70;99.90;;;;;;5074651;28;20202;-66
2021/12/20 08:32:43;;;;;;;3.25;1.48;;;5.70;99.90;;;;;;5060823;28;20225;-67
2021/12/20 08:35:13;;;;;;;3.53;1.45;;;5.70;99.90;;;;;;5059661;28;20204;-65
2021/12/20 08:37:40;;;;;;;4.20;2.38;;;5.70;99.90;;;;;;5076953;28;20688;-65
2021/12/20 08:40:11;;;;;;;2.85;1.73;;;5.60;99.90;;;;;;5069720;28;20197;-68
2021/12/20 08:42:38;;;;;;;1.30;1.02;;;5.50;99.90;;;;;;5074278;28;20303;-67
2021/12/20 08:45:07;;;;;;;3.75;1.65;;;5.50;99.90;;;;;;5065536;28;20204;-65
2021/12/20 08:47:34;;;;;;;1.60;1.48;;;5.50;99.90;;;;;;5064870;28;20190;-65
2021/12/20 08:50:01;;;;;;;7.20;1.70;;;5.40;99.90;;;;;;5072598;28;20197;-65
2021/12/20 08:52:29;;;;;;;18.75;3.30;;;5.30;99.90;;;;;;5071360;28;20225;-65
2021/12/20 08:54:56;;;;;;;1.70;1.25;;;5.30;99.90;;;;;;5083412;28;20334;-66
2021/12/20 08:57:23;;;;;;;7.38;1.80;;;5.20;99.90;;;;;;5078527;28;20226;-66
2021/12/20 08:59:49;;;;;;;3.22;1.90;;;5.10;99.90;;;;;;5080287;28;20205;-65
2021/12/20 09:02:16;;;;;;;5.28;1.80;;;5.10;99.90;;;;;;5074267;28;20214;-66
2021/12/20 09:04:43;;;;;;;4.95;1.63;;;5.10;99.90;;;;;;5068898;28;20201;-65
2021/12/20 09:07:15;;;;;;;2.88;1.70;;;5.10;99.90;;;;;;5063479;28;20251;-66
2021/12/20 09:09:46;;;;;;;1.95;1.75;;;5.20;99.90;;;;;;5054871;28;20214;-67
2021/12/20 09:12:14;;;;;;;3.15;2.50;;;5.30;99.90;;;;;;5067992;28;20277;-65
2021/12/20 09:14:42;;;;;;;7.55;1.27;;;5.40;99.90;;;;;;5089679;28;20291;-66
2021/12/20 09:17:09;;;;;;;6.22;2.63;;;5.70;99.90;;;;;;5073393;28;20221;-65
2021/12/20 09:19:36;;;;;;;9.60;2.05;;;6.00;99.90;;;;;;5067400;28;20290;-66
2021/12/20 09:22:05;;;;;;;2.63;1.40;;;6.20;99.90;;;;;;5078645;28;20225;-66
2021/12/20 09:24:32;;;;;;;5.38;1.70;;;6.40;99.90;;;;;;5079840;28;20295;-67
2021/12/20 09:27:01;;;;;;;2.55;2.13;;;6.60;99.90;;;;;;5049900;28;20199;-66
2021/12/20 09:29:27;;;;;;;4.25;2.00;;;6.80;99.90;;;;;;5070975;28;20201;-66
2021/12/20 09:31:56;;;;;;;2.30;1.25;;;6.90;99.90;;;;;;5068408;28;20237;-67
2021/12/20 09:34:22;;;;;;;10.50;2.10;;;7.10;99.90;;;;;;5078259;28;20349;-67
2021/12/20 09:36:50;;;;;;;2.60;1.60;;;7.30;99.90;;;;;;5067901;28;20209;-67
2021/12/20 09:39:18;;;;;;;7.63;3.08;;;7.50;99.90;;;;;;5071145;28;20211;-66
2021/12/20 09:44:38;;;;;;;5.18;1.65;;;7.80;99.90;;;;;;5029610;28;20201;-68
2021/12/20 09:47:05;;;;;;;7.28;2.22;;;8.00;99.90;;;;;;5072043;28;20270;-66
2021/12/20 09:49:33;;;;;;;5.25;1.50;;;8.20;99.90;;;;;;5065076;28;20635;-66
2021/12/20 09:52:01;;;;;;;3.72;1.90;;;8.30;99.90;;;;;;5055617;28;20226;-66
2021/12/20 09:54:29;;;;;;;5.45;1.88;;;8.30;99.90;;;;;;5077839;28;20229;-66
2021/12/20 09:56:58;;;;;;;2.15;1.15;;;8.50;99.90;;;;;;5089756;28;20260;-65
2021/12/20 09:59:28;;;;;;;5.07;1.95;;;8.60;99.90;;;;;;5060806;28;20206;-67
2021/12/20 10:01:58;;;;;;;3.63;2.17;;;8.80;99.90;;;;;;5073050;28;20231;-66
2021/12/20 10:04:25;;;;;;;4.60;1.73;;;8.90;99.90;;;;;;5059726;28;20200;-66
2021/12/20 10:06:54;;;;;;;6.57;1.60;;;9.00;99.90;;;;;;5053829;28;20492;-66
2021/12/20 10:09:26;;;;;;;1.83;1.33;;;9.10;99.90;;;;;;5055205;28;20523;-67
2021/12/20 10:12:11;;;;;;;4.30;1.87;;;9.20;99.90;;;;;;5071839;28;20490;-67
2021/12/20 10:14:52;;;;;;;6.50;1.23;;;9.20;99.90;;;;;;5067898;28;20537;-67
2021/12/20 10:17:21;;;;;;;4.83;1.73;;;9.30;99.90;;;;;;5083016;28;20459;-66
2021/12/20 10:19:49;;;;;;;3.90;1.43;;;9.40;99.90;;;;;;5063158;28;20806;-66
2021/12/20 10:22:24;;;;;;;5.33;1.90;;;9.60;99.90;;;;;;5082262;28;20455;-66
2021/12/20 10:24:51;;;;;;;2.37;1.37;;;9.60;99.90;;;;;;5086625;28;20491;-66
2021/12/20 10:27:32;;;;;;;3.43;1.80;;;9.70;99.90;;;;;;5078410;28;20442;-67
2021/12/20 10:30:00;;;;;;;10.43;1.87;;;9.80;99.90;;;;;;5052170;28;21004;-67
2021/12/20 10:32:43;;;;;;;3.67;1.87;;;9.80;99.90;;;;;;5057224;28;20894;-66
2021/12/20 10:35:29;;;;;;;4.40;1.23;;;9.90;99.90;;;;;;5053673;28;20426;-67
2021/12/20 10:37:58;;;;;;;2.50;1.53;;;10.00;99.90;;;;;;5068159;28;20486;-67
2021/12/20 10:40:25;;;;;;;4.40;1.90;;;10.00;99.90;;;;;;5072186;28;20451;-68
2021/12/20 10:42:53;;;;;;;3.53;1.43;;;10.10;99.90;;;;;;5074286;28;20455;-68
2021/12/20 10:45:21;;;;;;;6.00;1.77;;;10.20;99.90;;;;;;5062924;28;21017;-69
2021/12/20 10:47:51;;;;;;;12.47;2.23;;;10.20;99.90;;;;;;5072231;28;20563;-66
2021/12/20 10:50:27;;;;;;;1.80;1.00;;;10.20;99.90;;;;;;5079710;28;20866;-68
2021/12/20 10:52:55;;;;;;;2.13;1.87;;;10.30;99.90;;;;;;5054911;28;20469;-68
2021/12/20 10:55:39;;;;;;;6.87;1.40;;;10.30;99.90;;;;;;5044960;28;20457;-68
2021/12/20 10:58:30;;;;;;;2.87;1.30;;;10.30;99.90;;;;;;5049324;28;20454;-68
2021/12/20 11:04:13;;;;;;;10.13;1.50;;;10.20;99.90;;;;;;5031762;28;20414;-67
2021/12/20 11:06:58;;;;;;;2.00;1.47;;;10.00;99.90;;;;;;5070284;28;20437;-66
2021/12/20 11:09:25;;;;;;;3.07;1.50;;;10.10;99.90;;;;;;5073357;28;20424;-67
2021/12/20 11:11:54;;;;;;;3.90;1.30;;;10.00;99.90;;;;;;5071004;28;20989;-67
2021/12/20 11:14:23;;;;;;;2.40;0.80;;;10.00;99.90;;;;;;5070236;28;20471;-66
2021/12/20 11:16:52;;;;;;;6.60;1.90;;;10.10;99.90;;;;;;5071718;28;20477;-66
2021/12/20 11:19:27;;;;;;;4.20;1.47;;;10.10;99.90;;;;;;5068385;28;20942;-68
2021/12/20 11:22:04;;;;;;;4.70;1.47;;;10.00;99.90;;;;;;5070889;28;20451;-67
2021/12/20 11:24:34;;;;;;;3.97;1.60;;;9.90;99.90;;;;;;5050743;28;20422;-69
2021/12/20 11:27:03;;;;;;;1.90;0.97;;;9.90;99.90;;;;;;5060133;28;20464;-66
2021/12/20 11:29:31;;;;;;;1.60;1.50;;;10.00;99.90;;;;;;5063570;28;20462;-68
2021/12/20 11:31:58;;;;;;;3.47;1.73;;;9.90;99.90;;;;;;5063214;28;20450;-66
2021/12/20 11:34:27;;;;;;;2.00;1.33;;;10.00;99.90;;;;;;5067546;28;20432;-66
2021/12/20 11:36:55;;;;;;;1.10;0.77;;;10.00;99.90;;;;;;5088587;28;20489;-66
2021/12/20 11:39:23;;;;;;;2.90;2.17;;;10.00;99.90;;;;;;5054396;28;20990;-68
2021/12/20 11:41:50;;;;;;;4.83;1.37;;;9.90;99.90;;;;;;5065151;28;20448;-66
2021/12/20 11:44:20;;;;;;;4.07;1.40;;;10.00;99.90;;;;;;5055295;28;20491;-67
2021/12/20 11:46:54;;;;;;;4.20;0.87;;;10.10;99.90;;;;;;5062079;28;20417;-67
2021/12/20 11:49:23;;;;;;;2.63;1.00;;;10.30;99.90;;;;;;5065147;28;20426;-66
2021/12/20 11:51:59;;;;;;;1.00;0.77;;;10.50;99.90;;;;;;5049189;28;20473;-66
2021/12/20 11:54:44;;;;;;;2.77;0.77;;;10.80;99.90;;;;;;5059797;28;20505;-65
2021/12/20 11:57:39;;;;;;;4.53;0.93;;;10.90;99.90;;;;;;5081336;28;20952;-74
2021/12/20 12:00:22;;;;;;;1.13;1.00;;;11.00;99.90;;;;;;5059539;28;20419;-68
2021/12/20 12:02:50;;;;;;;1.10;1.00;;;11.10;99.90;;;;;;5066393;28;20519;-67
2021/12/20 12:05:27;;;;;;;1.07;0.80;;;11.10;99.90;;;;;;5065255;28;20445;-66
2021/12/20 12:08:24;;;;;;;3.77;1.10;;;11.40;99.90;;;;;;5079488;28;20424;-66
2021/12/20 12:10:51;;;;;;;2.00;1.03;;;11.70;99.90;;;;;;5055664;28;20416;-66
2021/12/20 12:13:19;;;;;;;0.97;0.57;;;12.00;99.90;;;;;;5083895;28;20878;-66
2021/12/20 12:15:53;;;;;;;2.20;0.80;;;12.20;99.90;;;;;;5078734;28;20428;-67
2021/12/20 12:18:20;;;;;;;1.33;0.80;;;12.10;99.90;;;;;;5076989;28;20453;-65
2021/12/20 12:20:49;;;;;;;1.93;1.00;;;12.20;99.90;;;;;;5069557;28;20465;-66
2021/12/20 12:23:20;;;;;;;1.80;1.00;;;12.40;99.90;;;;;;5077322;28;20471;-67
2021/12/20 12:25:51;;;;;;;0.73;0.70;;;12.50;99.90;;;;;;5064473;28;20996;-66
2021/12/20 12:28:20;;;;;;;1.57;0.60;;;12.60;99.90;;;;;;5065157;28;20422;-65
2021/12/20 12:30:57;;;;;;;2.20;1.03;;;12.80;99.90;;;;;;5068835;28;20457;-66
2021/12/20 12:33:31;;;;;;;1.17;0.70;;;13.10;99.90;;;;;;5087089;22;20535;-68
2021/12/20 12:36:05;;;;;;;0.93;0.73;;;13.30;99.90;;;;;;5079679;28;20952;-67
2021/12/20 12:38:35;;;;;;;0.87;0.80;;;13.50;99.90;;;;;;5080587;28;20479;-67
2021/12/20 12:41:18;;;;;;;0.50;0.40;;;13.60;99.90;;;;;;5082811;28;20482;-67
2021/12/20 12:44:06;;;;;;;1.17;0.70;;;13.50;99.90;;;;;;5077166;28;21016;-67
2021/12/20 12:46:48;;;;;;;2.10;0.60;;;13.60;99.90;;;;;;5075740;28;20473;-66
2021/12/20 12:49:37;;;;;;;0.60;0.43;;;13.80;99.90;;;;;;5086473;28;20447;-65
2021/12/20 12:52:08;;;;;;;0.90;0.60;;;13.90;99.90;;;;;;5081628;28;20468;-67
2021/12/20 12:54:41;;;;;;;1.40;0.70;;;14.00;99.90;;;;;;5084624;28;20446;-67
2021/12/20 12:57:33;;;;;;;0.77;0.67;;;13.90;99.90;;;;;;5086962;28;20519;-68
2021/12/20 13:00:05;;;;;;;0.60;0.40;;;13.90;99.90;;;;;;5083103;28;20509;-68
2021/12/20 13:02:34;;;;;;;1.57;0.60;;;13.90;99.90;;;;;;5073501;28;20622;-67
2021/12/20 13:05:07;;;;;;;0.90;0.60;;;13.90;99.90;;;;;;5078503;28;20449;-67
2021/12/20 13:07:35;;;;;;;2.53;0.60;;;13.60;99.90;;;;;;5068304;28;20213;-66
2021/12/20 13:10:06;;;;;;;1.27;0.50;;;13.20;99.90;;;;;;5080851;28;20474;-65
2021/12/20 13:12:41;;;;;;;2.27;0.53;;;12.90;99.90;;;;;;5085835;28;20498;-66
2021/12/20 13:15:13;;;;;;;0.90;0.50;;;12.70;99.90;;;;;;5080478;28;20454;-66
2021/12/20 13:17:42;;;;;;;1.57;1.00;;;12.50;99.90;;;;;;5086403;28;20543;-65
2021/12/20 13:20:19;;;;;;;1.53;0.80;;;12.40;99.90;;;;;;5081744;28;20539;-65